Lexington, NE

7:30 PM CST on November 18, 2019 (GMT -0600)
Kelly

Weather History for KLXN - June, 2019

Change the Weather History Date:

Sunday, June 9, 2019

  Actual Average Record
Temperature  
Mean Temperature 58 °F -  
Max Temperature 66 °F 77 °F 96 °F (2006)
Min Temperature 49 °F 53 °F 49 °F (2019)
Degree Days  
Heating Degree Days 7    
Growing Degree Days 8 (Base 50)    
Moisture  
Dew Point 48 °F    
Average Humidity 75    
Maximum Humidity 97    
Minimum Humidity 41    
Precipitation  
Precipitation 0.19 in - - ()
Sea Level Pressure  
Sea Level Pressure 30.28 in    
Wind  
Wind Speed 17 mph (North)    
Max Wind Speed 24 mph    
Max Gust Speed 33 mph    
Visibility 10 miles    
Events Rain    
Averages and records for this station are not official NWS values.
T = Trace of Precipitation, MM = Missing Value Source: NWS Daily Summary

Daily Weather History Graph

Daily Weather History Graph

Search for Another Location

Airport or City:

Astronomy

Jun. 09, 2019 Rise Set
Actual Time 6:07 AM CDT 9:09 PM CDT
Civil Twilight 5:34 AM CDT 9:42 PM CDT
Nautical Twilight 4:52 AM CDT 10:24 PM CDT
Astronomical Twilight 4:02 AM CDT 11:14 PM CDT
Moon 12:49 PM CDT (6/9) 1:49 AM CDT (6/9)
Length of Visible Light 16h 08m
Length of Day
15h 01m
Waxing Crescent, 44% of the Moon is Illuminated
Jun 9
Waxing Crescent
Jun 10
First Quarter
Jun 17
Full
Jun 25
Last Quarter
Jul 2
New

Hourly Weather History & Observations

Time (CDT) Temp. Dew Point Humidity Pressure Visibility Wind Dir Wind Speed Gust Speed Precip Events Conditions
12:15 AM 59.9 °F 58.3 °F 94% 30.03 in 10.0 mi North 19.6 mph 25.3 mph N/A Rain Light Rain
12:35 AM 59.4 °F 58.1 °F 96% 30.06 in 7.0 mi North 18.4 mph 21.9 mph 0.02 in Rain Rain
12:55 AM 58.3 °F 57.4 °F 97% 30.07 in 4.0 mi North 17.3 mph 27.6 mph 0.10 in Rain Heavy Rain
1:15 AM 57.7 °F 56.8 °F 97% 30.06 in 5.0 mi NNE 24.2 mph 31.1 mph 0.06 in Rain Light Rain
1:35 AM 56.8 °F 55.9 °F 97% 30.06 in 7.0 mi NE 17.3 mph 27.6 mph 0.08 in Rain Light Rain
1:55 AM 56.3 °F 55.2 °F 96% 30.08 in 10.0 mi NNE 20.7 mph 28.8 mph 0.08 in   Light Drizzle
2:15 AM 55.4 °F 54.1 °F 96% 30.10 in 10.0 mi North 23.0 mph 31.1 mph N/A   Light Drizzle
2:35 AM 54.9 °F 53.6 °F 96% 30.11 in 10.0 mi North 21.9 mph 32.2 mph N/A   Overcast
2:55 AM 54.7 °F 53.1 °F 94% 30.12 in 10.0 mi North 20.7 mph 27.6 mph N/A   Overcast
3:15 AM 54.5 °F 52.7 °F 94% 30.12 in 10.0 mi NNE 21.9 mph 27.6 mph N/A   Overcast
3:35 AM 54.5 °F 52.2 °F 92% 30.13 in 10.0 mi North 18.4 mph 28.8 mph N/A   Overcast
3:55 AM 54.0 °F 51.6 °F 92% 30.14 in 10.0 mi North 21.9 mph 31.1 mph N/A   Overcast
4:15 AM 53.6 °F 50.9 °F 91% 30.15 in 10.0 mi North 24.2 mph 28.8 mph N/A   Overcast
4:35 AM 53.2 °F 51.1 °F 92% 30.16 in 10.0 mi North 16.1 mph 26.5 mph N/A   Overcast
4:55 AM 53.1 °F 51.1 °F 93% 30.18 in 10.0 mi North 19.6 mph 25.3 mph N/A   Overcast
5:15 AM 52.7 °F 50.0 °F 91% 30.18 in 10.0 mi North 17.3 mph 25.3 mph N/A   Overcast
5:35 AM 52.9 °F 50.0 °F 90% 30.19 in 10.0 mi North 16.1 mph 21.9 mph N/A   Overcast
5:55 AM 52.9 °F 50.9 °F 93% 30.21 in 10.0 mi North 15.0 mph 19.6 mph 0.01 in Rain Light Rain
6:15 AM 53.2 °F 51.1 °F 92% 30.22 in 10.0 mi NNW 11.5 mph 16.1 mph N/A   Overcast
6:35 AM 53.4 °F 49.6 °F 87% 30.24 in 10.0 mi NNW 21.9 mph 26.5 mph N/A   Overcast
6:55 AM 52.2 °F 48.2 °F 86% 30.24 in 10.0 mi North 17.3 mph 21.9 mph N/A   Overcast
7:15 AM 52.0 °F 48.2 °F 87% 30.26 in 10.0 mi North 18.4 mph 25.3 mph N/A   Overcast
7:35 AM 51.1 °F 47.8 °F 89% 30.27 in 10.0 mi North 17.3 mph 24.2 mph N/A Rain Light Rain
7:55 AM 50.9 °F 48.6 °F 92% 30.27 in 10.0 mi North 13.8 mph 19.6 mph N/A   Light Drizzle
8:15 AM 50.5 °F 48.4 °F 92% 30.28 in 10.0 mi North 15.0 mph - N/A   Overcast
8:35 AM 50.9 °F 47.5 °F 88% 30.29 in 10.0 mi North 15.0 mph - N/A   Overcast
8:55 AM 51.6 °F 47.5 °F 86% 30.30 in 10.0 mi North 18.4 mph 21.9 mph N/A   Overcast
9:15 AM 51.4 °F 46.8 °F 84% 30.31 in 10.0 mi North 19.6 mph 23.0 mph N/A   Overcast
9:35 AM 52.2 °F 46.9 °F 82% 30.32 in 10.0 mi North 17.3 mph 21.9 mph N/A   Overcast
9:55 AM 52.9 °F 47.5 °F 82% 30.32 in 10.0 mi NNW 16.1 mph 20.7 mph N/A   Overcast
10:15 AM 53.8 °F 48.0 °F 81% 30.33 in 10.0 mi NNW 19.6 mph 23.0 mph N/A   Overcast
10:35 AM 53.8 °F 47.3 °F 79% 30.33 in 10.0 mi NNW 17.3 mph 21.9 mph N/A   Overcast
10:55 AM 53.2 °F 46.6 °F 78% 30.34 in 10.0 mi NNW 17.3 mph - N/A   Overcast
11:15 AM 53.4 °F 46.2 °F 77% 30.34 in 10.0 mi NNW 19.6 mph - N/A   Overcast
11:35 AM 55.8 °F 46.9 °F 72% 30.33 in 10.0 mi NNW 19.6 mph 26.5 mph N/A   Overcast
11:55 AM 57.9 °F 48.4 °F 71% 30.34 in 10.0 mi North 19.6 mph 25.3 mph N/A   Mostly Cloudy
12:15 PM 58.5 °F 48.4 °F 69% 30.34 in 10.0 mi North 20.7 mph 28.8 mph N/A   Scattered Clouds
12:35 PM 59.7 °F 47.8 °F 65% 30.35 in 10.0 mi NNW 19.6 mph 24.2 mph N/A   Scattered Clouds
12:55 PM 59.9 °F 48.2 °F 65% 30.34 in 10.0 mi North 20.7 mph 28.8 mph N/A   Scattered Clouds
1:15 PM 60.3 °F 48.2 °F 64% 30.34 in 10.0 mi NNW 19.6 mph 29.9 mph N/A   Scattered Clouds
1:35 PM 61.2 °F 48.4 °F 63% 30.34 in 10.0 mi North 18.4 mph 33.4 mph N/A   Scattered Clouds
1:55 PM 61.5 °F 48.7 °F 63% 30.35 in 10.0 mi North 17.3 mph 24.2 mph N/A   Clear
2:15 PM 61.2 °F 47.1 °F 60% 30.35 in 10.0 mi North 17.3 mph 26.5 mph N/A   Scattered Clouds
2:35 PM 61.9 °F 46.8 °F 58% 30.35 in 10.0 mi North 15.0 mph 26.5 mph N/A   Scattered Clouds
2:55 PM 63.3 °F 48.7 °F 59% 30.35 in 10.0 mi NNW 13.8 mph 20.7 mph N/A   Mostly Cloudy
3:15 PM 63.0 °F 48.0 °F 58% 30.35 in 10.0 mi NNW 11.5 mph - N/A   Overcast
3:35 PM 64.6 °F 47.7 °F 54% 30.35 in 10.0 mi NNW 16.1 mph 23.0 mph N/A   Mostly Cloudy
3:55 PM 64.9 °F 47.8 °F 54% 30.35 in 10.0 mi North 15.0 mph 23.0 mph N/A   Scattered Clouds
4:15 PM 66.2 °F 48.0 °F 52% 30.35 in 10.0 mi North 13.8 mph 19.6 mph N/A   Scattered Clouds
4:35 PM 66.0 °F 46.9 °F 50% 30.35 in 10.0 mi NNW 15.0 mph - N/A   Mostly Cloudy
4:55 PM 65.7 °F 45.3 °F 48% 30.35 in 10.0 mi NNW 17.3 mph - N/A   Scattered Clouds
5:15 PM 66.6 °F 46.4 °F 48% 30.35 in 10.0 mi NNW 12.7 mph 18.4 mph N/A   Scattered Clouds
5:35 PM 66.2 °F 44.2 °F 45% 30.35 in 10.0 mi NNW 15.0 mph 19.6 mph N/A   Scattered Clouds
5:55 PM 66.0 °F 44.1 °F 45% 30.34 in 10.0 mi NNW 17.3 mph 20.7 mph N/A   Clear
6:15 PM 66.2 °F 44.1 °F 45% 30.34 in 10.0 mi North 11.5 mph - N/A   Clear
6:35 PM 66.2 °F 43.2 °F 43% 30.34 in 10.0 mi North 16.1 mph 20.7 mph N/A   Clear
6:55 PM 65.7 °F 42.6 °F 43% 30.34 in 10.0 mi North 11.5 mph - N/A   Clear
7:15 PM 65.5 °F 42.3 °F 43% 30.34 in 10.0 mi North 15.0 mph 19.6 mph N/A   Clear
7:30 PM 64.9 °F 40.8 °F 41% 30.35 in 10.0 mi North 13.8 mph - N/A   Clear
7:55 PM 63.7 °F 42.3 °F 46% 30.35 in 10.0 mi North 9.2 mph - N/A   Clear
8:15 PM 62.6 °F 42.6 °F 48% 30.36 in 10.0 mi North 8.1 mph - N/A   Clear
8:35 PM 60.6 °F 44.4 °F 55% 30.36 in 10.0 mi NNE 6.9 mph - N/A   Clear
8:55 PM 57.9 °F 45.5 °F 63% 30.36 in 10.0 mi NNE 6.9 mph - N/A   Clear
9:15 PM 55.8 °F 46.0 °F 70% 30.37 in 10.0 mi NNE 5.8 mph - N/A   Clear
9:35 PM 53.8 °F 46.9 °F 78% 30.37 in 10.0 mi NE 3.5 mph - N/A   Clear
9:55 PM 54.1 °F 45.7 °F 73% 30.37 in 10.0 mi NE 3.5 mph - N/A   Clear
10:15 PM 52.9 °F 45.9 °F 77% 30.38 in 10.0 mi Calm Calm - N/A   Clear
10:35 PM 52.3 °F 47.5 °F 84% 30.39 in 10.0 mi Calm Calm - N/A   Clear
10:55 PM 51.1 °F 47.5 °F 87% 30.40 in 10.0 mi Calm Calm - N/A   Clear
11:15 PM 51.3 °F 48.0 °F 89% 30.41 in 10.0 mi Calm Calm - N/A   Clear
11:35 PM 50.0 °F 47.5 °F 91% 30.41 in 10.0 mi WSW 3.5 mph - N/A   Clear
11:55 PM 49.1 °F 46.8 °F 92% 30.41 in 10.0 mi West 4.6 mph - N/A   Clear